Aeroporto :
LOGIN :

Iscrizione | Disclaimer

   EN    FR    IT 

 










Sommario :    VFR   VFR Marginale   IFR   IFR Intensivo   IFR Molto Intensivo
Visibilità : 
Base nubi : 
>= 8 km
>= 3000ft
5 / 8 km
1000 / 3000 ft
1500m / 5 km
500 / 1000 ft
800 / 1500m
200 / 500 ft
< 800m
< 200 ft
Simboli :   Temporali  Nebbia  Neve Forte  Precipitazioni Forti  Vento > 20 kt
SIGMETs :   Varie  Temporali  Ghiacco  Turbolenza  Onda orograficha  Ceneri Vulcaniche






- Altitudine del aeroporto : 370 ft


EBBE - Beauvechain AB

ULTIMO METAR :
  • 071825Z AUTO 21010KT 9999 BKN039/// 08/06 Q1016 BLU

METARs OBSOLETI :
  • 071755Z AUTO 22010KT 9999 FEW033/// BKN041/// 08/06 Q1016 BLU
  • 071725Z AUTO 23009KT 9999 SCT033/// BKN039/// 09/06 Q1016 BLU
  • 071655Z AUTO 23009KT 9999 FEW032/// BKN042/// 08/06 Q1016 BLU
  • 071625Z AUTO 23007KT 9999 BKN032/// OVC038/// 09/06 Q1015 BLU
  • 071555Z AUTO 23008KT 9999 FEW032/// BKN039/// BKN044/// 09/06 Q1016 BLU

Previsioni scadute.



MetMap, La meteo Aeronautica in un colpo d'occhio ! - Copyright ORBIFLY Dicembre 2007 - Disclaimer

ORBIFLY MET'MAP TEAM :

Programmazione e sviluppo : Alexandra Zaïnal
Concezione : Baudouin d'Aumeries
Aiuto per la programmazione : Marc-Olivier Méhu
Supporto tecnico e logistico : Manuel Goepfert
Aiuto per la traduzione : Arnaldo La Scala

Contatto : metmap@orbifly.com




FONTI E CREDITI :

   NOAA